Time;durP1;ratioP1;P1;durP2;ratioP2;P2;SDS_P1;SDS_P2;PMS_P1;PMS_P2;Temp;Humidity;BMP_temperature;BMP_pressure;BME280_temperature;BME280_humidity;BME280_pressure;Samples;Min_cycle;Max_cycle;Signal;HPM_P1;HPM_P2
2023/08/28 00:02:09;;;;;;;0.73;0.50;;;12.50;99.90;;;;;;5115667;28;20091;-83
2023/08/28 00:04:35;;;;;;;0.40;0.40;;;12.70;99.90;;;;;;5116010;28;20055;-85
2023/08/28 00:07:01;;;;;;;0.73;0.60;;;12.50;99.90;;;;;;5115463;28;20051;-83
2023/08/28 00:09:26;;;;;;;0.40;0.40;;;12.50;99.90;;;;;;5115629;28;20049;-83
2023/08/28 00:11:54;;;;;;;0.82;0.60;;;12.50;99.90;;;;;;5115248;28;20096;-82
2023/08/28 00:14:20;;;;;;;0.55;0.55;;;12.50;99.90;;;;;;5113963;28;20086;-82
2023/08/28 00:16:46;;;;;;;0.93;0.77;;;12.50;99.90;;;;;;5115109;28;20075;-84
2023/08/28 00:19:12;;;;;;;0.43;0.43;;;12.50;99.90;;;;;;5115526;27;20375;-82
2023/08/28 00:21:37;;;;;;;0.40;0.40;;;12.50;99.90;;;;;;5114745;28;20035;-83
2023/08/28 00:24:04;;;;;;;0.50;0.50;;;12.60;99.90;;;;;;5115342;28;20417;-82
2023/08/28 00:26:30;;;;;;;0.40;0.40;;;12.50;99.90;;;;;;5115361;28;20101;-82
2023/08/28 00:28:56;;;;;;;0.30;0.30;;;12.50;99.90;;;;;;5113374;28;20479;-85
2023/08/28 00:31:22;;;;;;;0.50;0.50;;;12.50;99.90;;;;;;5114608;28;20078;-84
2023/08/28 00:33:48;;;;;;;0.57;0.57;;;12.50;99.90;;;;;;5114843;28;20040;-83
2023/08/28 00:36:14;;;;;;;0.50;0.50;;;12.50;99.90;;;;;;5114722;28;20100;-84
2023/08/28 00:38:40;;;;;;;0.40;0.40;;;12.50;99.90;;;;;;5114818;28;20080;-83
2023/08/28 00:41:06;;;;;;;0.40;0.40;;;12.50;99.90;;;;;;5114726;28;20035;-82
2023/08/28 00:43:31;;;;;;;0.47;0.47;;;12.80;99.90;;;;;;5114594;28;20065;-83
2023/08/28 00:45:57;;;;;;;0.45;0.45;;;12.50;99.90;;;;;;5114567;28;20510;-82
2023/08/28 00:48:24;;;;;;;0.40;0.40;;;12.40;99.90;;;;;;5114180;28;20042;-83
2023/08/28 00:50:52;;;;;;;0.47;0.47;;;12.50;99.90;;;;;;5114539;28;20352;-81
2023/08/28 00:53:18;;;;;;;0.40;0.40;;;12.40;99.90;;;;;;5114466;28;20042;-82
2023/08/28 00:55:44;;;;;;;0.40;0.40;;;12.30;99.90;;;;;;5114276;28;20371;-83
2023/08/28 00:58:10;;;;;;;0.60;0.60;;;12.30;99.90;;;;;;5114456;28;20127;-83
2023/08/28 01:00:36;;;;;;;0.70;0.57;;;12.30;99.90;;;;;;5114326;28;20122;-82
2023/08/28 01:03:01;;;;;;;0.63;0.63;;;12.20;99.90;;;;;;5114117;28;20096;-83
2023/08/28 01:06:06;;;;;;;0.60;0.60;;;12.20;99.90;;;;;;5114074;28;20039;-83
2023/08/28 01:08:56;;;;;;;0.57;0.57;;;12.20;99.90;;;;;;5113589;28;20048;-82
2023/08/28 01:11:54;;;;;;;0.40;0.40;;;12.20;99.90;;;;;;5114146;28;20048;-83
2023/08/28 01:14:24;;;;;;;0.57;0.52;;;12.10;99.90;;;;;;5113315;28;20062;-82
2023/08/28 01:16:51;;;;;;;0.30;0.30;;;12.10;99.90;;;;;;5114502;28;20047;-84
2023/08/28 01:19:29;;;;;;;0.50;0.50;;;12.00;99.90;;;;;;5114140;28;20498;-82
2023/08/28 01:22:10;;;;;;;0.38;0.38;;;12.10;99.90;;;;;;5114222;28;20467;-82
2023/08/28 01:24:43;;;;;;;0.43;0.43;;;12.00;99.90;;;;;;5114506;28;20067;-82
2023/08/28 01:27:09;;;;;;;0.40;0.40;;;12.00;99.90;;;;;;5114006;28;20050;-82
2023/08/28 01:29:35;;;;;;;0.52;0.52;;;12.00;99.90;;;;;;5113900;28;20471;-82
2023/08/28 01:32:01;;;;;;;0.50;0.50;;;12.00;99.90;;;;;;5113972;28;20036;-82
2023/08/28 01:34:26;;;;;;;0.40;0.40;;;11.90;99.90;;;;;;5113953;28;20046;-82
2023/08/28 01:36:58;;;;;;;0.65;0.65;;;11.90;99.90;;;;;;5113927;28;20036;-81
2023/08/28 01:39:31;;;;;;;0.60;0.60;;;11.90;99.90;;;;;;5113601;28;20416;-83
2023/08/28 01:41:58;;;;;;;0.47;0.47;;;11.90;99.90;;;;;;5117196;28;20075;-84
2023/08/28 01:44:30;;;;;;;0.50;0.50;;;11.90;99.90;;;;;;5116950;28;20046;-84
2023/08/28 01:46:57;;;;;;;0.60;0.60;;;11.90;99.90;;;;;;5117788;28;20043;-82
2023/08/28 01:49:28;;;;;;;0.50;0.50;;;11.90;99.90;;;;;;5118854;28;20039;-82
2023/08/28 01:51:53;;;;;;;0.60;0.60;;;11.80;99.90;;;;;;5118234;28;20035;-84
2023/08/28 01:54:19;;;;;;;0.40;0.40;;;11.80;99.90;;;;;;5118600;28;20035;-81
2023/08/28 01:56:45;;;;;;;0.57;0.50;;;12.10;99.90;;;;;;5119746;28;20122;-82
2023/08/28 01:59:11;;;;;;;0.40;0.40;;;11.80;99.90;;;;;;5116708;28;20463;-82
2023/08/28 02:01:36;;;;;;;0.50;0.50;;;11.80;99.90;;;;;;5117973;28;20391;-83
2023/08/28 02:04:02;;;;;;;0.50;0.50;;;11.70;99.90;;;;;;5117744;28;20375;-82
2023/08/28 02:06:28;;;;;;;0.57;0.57;;;11.70;99.90;;;;;;5117648;28;20469;-82
2023/08/28 02:08:53;;;;;;;0.60;0.60;;;11.70;99.90;;;;;;5117339;28;20036;-82
2023/08/28 02:11:19;;;;;;;0.70;0.70;;;11.70;99.90;;;;;;5117570;28;20597;-82
2023/08/28 02:13:45;;;;;;;2.15;0.93;;;11.70;99.90;;;;;;5116429;28;20035;-81
2023/08/28 02:16:10;;;;;;;0.50;0.50;;;11.70;99.90;;;;;;5116275;28;20498;-82
2023/08/28 02:18:36;;;;;;;0.40;0.40;;;11.60;99.90;;;;;;5117908;28;20043;-84
2023/08/28 02:21:01;;;;;;;0.50;0.50;;;11.60;99.90;;;;;;5117436;28;20031;-82
2023/08/28 02:23:28;;;;;;;0.70;0.70;;;11.60;99.90;;;;;;5117349;28;20482;-83
2023/08/28 02:25:54;;;;;;;0.70;0.70;;;11.60;99.90;;;;;;5099489;28;20061;-84
2023/08/28 02:28:20;;;;;;;0.50;0.50;;;11.60;99.90;;;;;;5117338;28;20472;-83
2023/08/28 02:30:46;;;;;;;0.57;0.57;;;11.60;99.90;;;;;;5116980;28;20128;-82
2023/08/28 02:33:12;;;;;;;0.50;0.50;;;11.60;99.90;;;;;;5117094;28;20126;-83
2023/08/28 02:35:38;;;;;;;0.60;0.60;;;11.60;99.90;;;;;;5116982;28;20093;-82
2023/08/28 02:38:06;;;;;;;0.70;0.70;;;11.70;99.90;;;;;;5117339;28;20277;-83
2023/08/28 02:40:32;;;;;;;0.70;0.70;;;11.60;99.90;;;;;;5116407;28;20095;-82
2023/08/28 02:43:05;;;;;;;0.80;0.80;;;11.60;99.90;;;;;;5116966;28;20039;-83
2023/08/28 02:45:39;;;;;;;0.60;0.60;;;11.60;99.90;;;;;;5117671;28;20122;-82
2023/08/28 02:48:04;;;;;;;0.50;0.50;;;11.60;99.90;;;;;;5116886;28;20376;-83
2023/08/28 02:50:31;;;;;;;1.07;0.80;;;11.60;99.90;;;;;;5117254;28;20042;-82
2023/08/28 02:52:57;;;;;;;0.52;0.50;;;11.60;99.90;;;;;;5115965;28;20471;-81
2023/08/28 02:55:22;;;;;;;0.40;0.40;;;12.10;99.90;;;;;;5115808;28;20127;-82
2023/08/28 02:57:48;;;;;;;0.93;0.87;;;11.50;99.90;;;;;;5116371;28;20387;-84
2023/08/28 03:00:14;;;;;;;0.90;0.90;;;11.50;99.90;;;;;;5117155;28;20039;-82
2023/08/28 03:02:40;;;;;;;0.95;0.82;;;11.50;99.90;;;;;;5098874;28;20105;-83
2023/08/28 03:05:06;;;;;;;0.60;0.60;;;11.50;99.90;;;;;;5117354;28;20340;-82
2023/08/28 03:07:32;;;;;;;0.93;0.80;;;11.50;99.90;;;;;;5118650;28;20134;-82
2023/08/28 03:09:57;;;;;;;0.40;0.40;;;11.50;99.90;;;;;;5118425;28;20351;-82
2023/08/28 03:12:23;;;;;;;0.60;0.60;;;11.50;99.90;;;;;;5116741;28;20340;-82
2023/08/28 03:14:49;;;;;;;0.50;0.50;;;11.50;99.90;;;;;;5116819;28;20437;-84
2023/08/28 03:17:14;;;;;;;0.70;0.70;;;11.50;99.90;;;;;;5116247;28;20043;-84
2023/08/28 03:19:40;;;;;;;0.50;0.50;;;11.50;99.90;;;;;;5116431;28;20039;-82
2023/08/28 03:22:06;;;;;;;0.50;0.50;;;11.40;99.90;;;;;;5116272;28;20071;-82
2023/08/28 03:24:32;;;;;;;0.93;0.88;;;11.40;99.90;;;;;;5116248;28;20122;-81
2023/08/28 03:26:58;;;;;;;0.73;0.73;;;11.50;99.90;;;;;;5115904;28;20035;-84
2023/08/28 03:29:23;;;;;;;0.50;0.50;;;11.40;99.90;;;;;;5116005;28;20088;-82
2023/08/28 03:31:50;;;;;;;0.70;0.70;;;11.40;99.90;;;;;;5116044;28;20047;-84
2023/08/28 03:34:17;;;;;;;0.60;0.60;;;11.40;99.90;;;;;;5115955;28;20088;-82
2023/08/28 03:36:42;;;;;;;;;;;11.30;99.90;;;;;;5116464;28;20032;-81
2023/08/28 03:39:08;;;;;;;0.77;0.77;;;11.50;99.90;;;;;;5114991;28;20347;-82
2023/08/28 03:41:34;;;;;;;0.60;0.60;;;11.40;99.90;;;;;;5114875;28;20100;-82
2023/08/28 03:43:59;;;;;;;1.98;0.70;;;11.30;99.90;;;;;;5115520;28;20494;-83
2023/08/28 03:46:25;;;;;;;0.77;0.68;;;11.30;99.90;;;;;;5115778;28;20134;-82
2023/08/28 03:48:51;;;;;;;0.50;0.50;;;11.20;99.90;;;;;;5115671;28;20089;-81
2023/08/28 03:51:17;;;;;;;0.57;0.57;;;11.20;99.90;;;;;;5115697;28;20301;-84
2023/08/28 03:53:42;;;;;;;0.50;0.50;;;11.20;99.90;;;;;;5114495;28;20039;-82
2023/08/28 03:56:08;;;;;;;0.50;0.50;;;11.20;99.90;;;;;;5115555;28;20043;-83
2023/08/28 03:58:34;;;;;;;0.70;0.70;;;11.20;99.90;;;;;;5115475;28;20057;-82
2023/08/28 04:00:59;;;;;;;0.45;0.45;;;11.20;99.90;;;;;;5114512;28;20402;-84
2023/08/28 04:03:25;;;;;;;1.48;0.60;;;11.20;99.90;;;;;;5114571;28;20501;-82
2023/08/28 04:05:52;;;;;;;0.50;0.50;;;11.60;99.90;;;;;;5115389;28;20612;-84
2023/08/28 04:08:19;;;;;;;0.70;0.70;;;11.10;99.90;;;;;;5115256;28;20051;-83
2023/08/28 04:10:45;;;;;;;0.63;0.60;;;11.10;99.90;;;;;;5115419;28;20043;-84
2023/08/28 04:13:11;;;;;;;0.75;0.60;;;11.10;99.90;;;;;;5113966;28;20039;-83
2023/08/28 04:15:37;;;;;;;0.60;0.60;;;11.10;99.90;;;;;;5115193;28;20100;-82
2023/08/28 04:18:04;;;;;;;1.33;0.70;;;11.00;99.90;;;;;;5115221;28;20078;-82
2023/08/28 04:20:30;;;;;;;0.60;0.60;;;11.00;99.90;;;;;;5115396;28;20118;-81
2023/08/28 04:22:55;;;;;;;0.75;0.65;;;11.00;99.90;;;;;;5115191;28;20042;-82
2023/08/28 04:25:21;;;;;;;0.50;0.50;;;11.00;99.90;;;;;;5115118;28;20033;-83
2023/08/28 04:27:47;;;;;;;0.50;0.50;;;11.00;99.90;;;;;;5113984;28;20373;-83
2023/08/28 04:30:12;;;;;;;0.63;0.63;;;11.00;99.90;;;;;;5114788;28;20032;-82
2023/08/28 04:32:39;;;;;;;0.70;0.70;;;10.90;99.90;;;;;;5115058;28;20039;-81
2023/08/28 04:35:06;;;;;;;0.63;0.50;;;10.90;99.90;;;;;;5115055;28;20367;-82
2023/08/28 04:37:32;;;;;;;0.55;0.55;;;10.90;99.90;;;;;;5114683;28;20099;-83
2023/08/28 04:39:58;;;;;;;1.73;0.80;;;11.50;99.90;;;;;;5114878;28;20044;-83
2023/08/28 04:42:24;;;;;;;0.55;0.55;;;10.90;99.90;;;;;;5115154;28;20032;-83
2023/08/28 04:44:49;;;;;;;0.50;0.50;;;10.80;99.90;;;;;;5114773;28;20035;-84
2023/08/28 04:47:15;;;;;;;0.47;0.47;;;10.80;99.90;;;;;;5114905;28;20088;-82
2023/08/28 04:49:41;;;;;;;0.50;0.50;;;10.80;99.90;;;;;;5114501;27;20074;-84
2023/08/28 04:52:07;;;;;;;0.73;0.73;;;10.80;99.90;;;;;;5114597;28;20042;-84
2023/08/28 04:54:33;;;;;;;1.00;0.88;;;10.80;99.90;;;;;;5113274;28;20047;-85
2023/08/28 04:56:59;;;;;;;0.50;0.50;;;11.20;99.90;;;;;;5114412;28;20122;-82
2023/08/28 04:59:25;;;;;;;0.60;0.60;;;10.80;99.90;;;;;;5115046;28;20175;-81
2023/08/28 05:01:50;;;;;;;1.02;0.70;;;10.80;99.90;;;;;;5114449;28;20130;-84
2023/08/28 05:04:16;;;;;;;0.68;0.68;;;10.80;99.90;;;;;;5113821;28;20159;-81
2023/08/28 05:06:42;;;;;;;0.70;0.68;;;11.20;99.90;;;;;;5114052;28;20471;-84
2023/08/28 05:09:08;;;;;;;0.95;0.70;;;10.80;99.90;;;;;;5113217;28;20032;-83
2023/08/28 05:11:33;;;;;;;0.70;0.70;;;10.90;99.90;;;;;;5114169;28;20092;-81
2023/08/28 05:13:59;;;;;;;0.50;0.50;;;10.90;99.90;;;;;;5113115;28;20085;-81
2023/08/28 05:16:24;;;;;;;0.60;0.60;;;10.90;99.90;;;;;;5113781;28;20422;-83
2023/08/28 05:18:50;;;;;;;0.98;0.70;;;10.90;99.90;;;;;;5114246;28;20038;-83
2023/08/28 05:21:15;;;;;;;0.68;0.68;;;10.90;99.90;;;;;;5114165;28;20073;-81
2023/08/28 05:23:41;;;;;;;0.50;0.50;;;11.00;99.90;;;;;;5114053;28;20118;-82
2023/08/28 05:26:07;;;;;;;0.55;0.55;;;11.00;99.90;;;;;;5114110;28;20043;-82
2023/08/28 05:28:35;;;;;;;0.70;0.70;;;11.00;99.90;;;;;;5113834;28;20041;-83
2023/08/28 05:31:02;;;;;;;0.40;0.40;;;11.10;99.90;;;;;;5114039;28;20092;-81
2023/08/28 05:33:28;;;;;;;1.95;0.80;;;11.10;99.90;;;;;;5114081;28;20035;-81
2023/08/28 05:35:54;;;;;;;0.50;0.50;;;11.10;99.90;;;;;;5113803;28;20039;-81
2023/08/28 05:38:20;;;;;;;0.60;0.60;;;11.20;99.90;;;;;;5095982;28;20047;-82
2023/08/28 05:40:45;;;;;;;0.50;0.50;;;11.20;99.90;;;;;;5113913;28;20036;-82
2023/08/28 05:43:11;;;;;;;0.50;0.50;;;11.20;99.90;;;;;;5114531;28;20046;-81
2023/08/28 05:45:37;;;;;;;0.70;0.60;;;11.20;99.90;;;;;;5112847;28;20123;-84
2023/08/28 05:48:03;;;;;;;0.60;0.60;;;11.30;99.90;;;;;;5113776;28;20075;-82
2023/08/28 05:50:29;;;;;;;0.88;0.82;;;11.30;99.90;;;;;;5113811;28;20066;-80
2023/08/28 05:52:54;;;;;;;0.77;0.77;;;11.30;99.90;;;;;;5113994;28;20039;-83
2023/08/28 05:55:20;;;;;;;0.68;0.65;;;11.40;99.90;;;;;;5113852;28;20050;-81
2023/08/28 05:57:46;;;;;;;0.50;0.50;;;11.40;99.90;;;;;;5113784;28;20046;-82
2023/08/28 06:00:15;;;;;;;0.80;0.70;;;11.40;99.90;;;;;;5113764;28;20371;-83
2023/08/28 06:02:41;;;;;;;0.52;0.52;;;11.50;99.90;;;;;;5113767;28;20036;-82
2023/08/28 06:05:08;;;;;;;0.77;0.70;;;11.50;99.90;;;;;;5113737;28;20085;-82
2023/08/28 06:07:34;;;;;;;0.60;0.60;;;11.60;99.90;;;;;;5114133;28;20059;-82
2023/08/28 06:10:00;;;;;;;0.50;0.50;;;11.60;99.90;;;;;;5113725;28;20043;-83
2023/08/28 06:12:26;;;;;;;0.75;0.75;;;11.70;99.90;;;;;;5112280;28;20503;-82
2023/08/28 06:14:51;;;;;;;0.60;0.60;;;11.70;99.90;;;;;;5096629;28;20340;-82
2023/08/28 06:17:17;;;;;;;0.50;0.50;;;11.80;99.90;;;;;;5114405;28;20043;-82
2023/08/28 06:19:43;;;;;;;0.88;0.60;;;11.90;99.90;;;;;;5115758;28;20047;-82
2023/08/28 06:22:08;;;;;;;0.40;0.40;;;12.00;99.90;;;;;;5115543;28;20501;-82
2023/08/28 06:24:34;;;;;;;0.40;0.40;;;12.00;99.90;;;;;;5113594;28;20352;-82
2023/08/28 06:27:00;;;;;;;0.50;0.50;;;12.10;99.90;;;;;;5113502;28;20463;-83
2023/08/28 06:29:26;;;;;;;0.50;0.50;;;12.20;99.90;;;;;;5116724;28;20042;-82
2023/08/28 06:31:51;;;;;;;0.47;0.47;;;12.30;99.90;;;;;;5117272;28;20031;-81
2023/08/28 06:34:17;;;;;;;0.40;0.40;;;12.40;99.90;;;;;;5099214;28;20043;-82
2023/08/28 06:36:45;;;;;;;0.43;0.43;;;12.60;99.90;;;;;;5117141;28;20039;-81
2023/08/28 06:39:11;;;;;;;0.40;0.40;;;12.70;99.90;;;;;;5115899;28;20035;-81
2023/08/28 06:41:37;;;;;;;0.68;0.60;;;12.90;99.90;;;;;;5116974;28;20119;-82
2023/08/28 06:44:04;;;;;;;0.82;0.50;;;13.00;99.90;;;;;;5115941;28;20483;-82
2023/08/28 06:46:30;;;;;;;0.50;0.50;;;13.20;99.90;;;;;;5116709;28;20079;-82
2023/08/28 06:48:56;;;;;;;0.80;0.73;;;13.40;99.90;;;;;;5115440;28;20043;-83
2023/08/28 06:51:22;;;;;;;0.40;0.40;;;13.50;99.90;;;;;;5116852;28;20046;-82
2023/08/28 06:53:50;;;;;;;0.63;0.63;;;13.60;99.90;;;;;;5115748;28;20043;-84
2023/08/28 06:56:16;;;;;;;0.40;0.40;;;13.80;99.90;;;;;;5098688;28;20039;-83
2023/08/28 06:58:42;;;;;;;0.77;0.70;;;13.90;99.90;;;;;;5115526;28;20114;-81
2023/08/28 07:01:08;;;;;;;0.50;0.50;;;14.00;99.90;;;;;;5116727;28;20490;-83
2023/08/28 07:03:33;;;;;;;0.50;0.50;;;14.10;99.90;;;;;;5116766;28;20498;-83
2023/08/28 07:05:59;;;;;;;0.50;0.50;;;14.30;99.90;;;;;;5116340;28;20032;-83
2023/08/28 07:08:25;;;;;;;0.63;0.63;;;14.40;99.90;;;;;;5116976;28;20108;-84
2023/08/28 07:10:51;;;;;;;0.75;0.63;;;14.50;99.90;;;;;;5116386;28;20043;-81
2023/08/28 07:13:17;;;;;;;0.50;0.50;;;14.60;99.90;;;;;;5115281;28;20032;-84
2023/08/28 07:15:42;;;;;;;0.65;0.52;;;14.70;99.90;;;;;;5116052;28;20039;-82
2023/08/28 07:18:08;;;;;;;0.30;0.30;;;14.80;99.90;;;;;;5116361;28;20047;-83
2023/08/28 07:20:34;;;;;;;0.30;0.30;;;14.90;99.90;;;;;;5116339;28;20485;-83
2023/08/28 07:23:00;;;;;;;0.40;0.40;;;15.00;99.90;;;;;;5116302;28;20043;-82
2023/08/28 07:25:27;;;;;;;1.13;0.57;;;15.00;99.90;;;;;;5115248;28;20032;-81
2023/08/28 07:27:53;;;;;;;0.40;0.40;;;15.10;99.90;;;;;;5115013;28;20432;-82
2023/08/28 07:30:19;;;;;;;0.65;0.65;;;15.20;99.90;;;;;;5116035;28;20122;-83
2023/08/28 07:32:45;;;;;;;0.40;0.40;;;15.30;99.90;;;;;;5116106;28;20119;-82
2023/08/28 07:35:11;;;;;;;0.33;0.33;;;15.40;99.90;;;;;;5116300;28;20088;-84
2023/08/28 07:37:37;;;;;;;0.37;0.37;;;15.60;99.90;;;;;;5116156;28;20043;-82
2023/08/28 07:40:06;;;;;;;0.47;0.47;;;15.60;99.90;;;;;;5115395;28;20032;-82
2023/08/28 07:42:36;;;;;;;0.50;0.50;;;15.70;99.90;;;;;;5115825;28;20044;-85
2023/08/28 07:45:03;;;;;;;0.65;0.65;;;15.80;99.90;;;;;;5114497;28;20086;-84
2023/08/28 07:47:29;;;;;;;0.73;0.50;;;15.90;99.90;;;;;;5115693;27;20050;-81
2023/08/28 07:49:55;;;;;;;0.50;0.50;;;16.00;99.90;;;;;;5115747;28;20031;-82
2023/08/28 07:52:21;;;;;;;0.40;0.40;;;16.10;99.90;;;;;;5115809;28;20039;-82
2023/08/28 07:54:47;;;;;;;0.43;0.43;;;16.20;99.90;;;;;;5115505;28;20471;-84
2023/08/28 07:57:13;;;;;;;0.40;0.40;;;16.30;99.90;;;;;;5115557;28;20114;-84
2023/08/28 07:59:39;;;;;;;0.40;0.40;;;16.40;99.90;;;;;;5115461;28;20039;-83
2023/08/28 08:02:04;;;;;;;0.30;0.30;;;16.40;99.90;;;;;;5115634;28;20441;-84
2023/08/28 08:04:32;;;;;;;0.73;0.70;;;16.50;99.90;;;;;;5116079;27;20269;-82
2023/08/28 08:06:57;;;;;;;0.57;0.55;;;16.50;99.90;;;;;;5115985;28;20104;-82
2023/08/28 08:09:24;;;;;;;0.67;0.57;;;16.70;99.90;;;;;;5115276;28;20437;-84
2023/08/28 08:11:49;;;;;;;0.40;0.40;;;16.70;99.90;;;;;;5115290;28;20039;-83
2023/08/28 08:14:15;;;;;;;0.40;0.40;;;16.90;99.90;;;;;;5114038;28;20424;-83
2023/08/28 08:16:41;;;;;;;0.63;0.63;;;16.90;99.90;;;;;;5115150;28;20039;-83
2023/08/28 08:19:06;;;;;;;0.40;0.40;;;17.00;99.90;;;;;;5115178;28;20096;-84
2023/08/28 08:21:32;;;;;;;0.30;0.30;;;17.10;99.90;;;;;;5097261;28;20051;-82
2023/08/28 08:23:57;;;;;;;0.40;0.40;;;17.20;99.90;;;;;;5114951;28;20081;-81
2023/08/28 08:26:23;;;;;;;0.40;0.40;;;17.30;99.90;;;;;;5115017;28;20614;-83
2023/08/28 08:28:49;;;;;;;0.30;0.30;;;17.40;99.90;;;;;;5114836;28;20040;-84
2023/08/28 08:31:14;;;;;;;0.47;0.47;;;17.50;99.90;;;;;;5114841;28;20118;-84
2023/08/28 08:33:40;;;;;;;0.80;0.80;;;17.70;99.90;;;;;;5114806;28;20082;-83
2023/08/28 08:36:06;;;;;;;0.50;0.50;;;17.90;99.90;;;;;;5114810;28;20521;-82
2023/08/28 08:38:32;;;;;;;0.30;0.30;;;18.00;99.90;;;;;;5114720;28;20277;-85
2023/08/28 08:40:58;;;;;;;0.70;0.70;;;18.10;99.90;;;;;;5115153;28;20098;-84
2023/08/28 08:43:27;;;;;;;0.20;0.20;;;18.30;99.90;;;;;;5114470;28;20046;-82
2023/08/28 08:46:04;;;;;;;0.68;0.40;;;18.40;99.90;;;;;;5114791;28;20054;-82
2023/08/28 08:48:33;;;;;;;0.30;0.30;;;18.50;99.90;;;;;;5114610;28;20065;-85
2023/08/28 08:51:06;;;;;;;0.35;0.35;;;18.70;99.90;;;;;;5113893;28;20066;-84
2023/08/28 08:54:14;;;;;;;0.30;0.30;;;18.90;99.90;;;;;;5114862;28;20039;-84
2023/08/28 08:56:41;;;;;;;0.28;0.28;;;19.00;99.90;;;;;;5114260;28;20053;-82
2023/08/28 08:59:08;;;;;;;0.30;0.30;;;19.20;99.90;;;;;;5114516;28;20141;-83
2023/08/28 09:01:36;;;;;;;0.20;0.20;;;19.20;99.90;;;;;;5113178;28;20383;-84
2023/08/28 09:04:04;;;;;;;0.80;0.63;;;19.20;99.90;;;;;;5114317;28;20087;-85
2023/08/28 09:06:34;;;;;;;0.30;0.30;;;19.20;99.90;;;;;;5114155;28;20515;-84
2023/08/28 09:09:00;;;;;;;0.50;0.30;;;19.10;99.90;;;;;;5114129;28;20364;-82
2023/08/28 09:11:27;;;;;;;0.30;0.30;;;19.00;99.90;;;;;;5114092;28;20127;-82
2023/08/28 09:13:53;;;;;;;0.40;0.40;;;18.90;99.90;;;;;;5114284;28;20112;-82
2023/08/28 09:16:18;;;;;;;0.40;0.40;;;18.90;99.90;;;;;;5113877;28;20487;-83
2023/08/28 09:18:44;;;;;;;0.30;0.30;;;18.70;99.90;;;;;;5114194;28;20040;-81
2023/08/28 09:21:13;;;;;;;0.30;0.30;;;18.60;99.90;;;;;;5114153;28;20146;-81
2023/08/28 09:23:46;;;;;;;0.38;0.38;;;18.50;99.90;;;;;;5114114;28;20044;-82
2023/08/28 09:26:13;;;;;;;0.32;0.32;;;18.40;99.90;;;;;;5114926;28;20040;-84
2023/08/28 09:28:39;;;;;;;0.30;0.30;;;18.50;99.90;;;;;;5116752;28;20035;-83
2023/08/28 09:31:05;;;;;;;0.20;0.20;;;18.70;99.90;;;;;;5116308;28;20080;-83
2023/08/28 09:33:44;;;;;;;0.40;0.37;;;18.90;99.90;;;;;;5115830;28;20127;-84
2023/08/28 09:36:18;;;;;;;0.30;0.30;;;19.00;99.90;;;;;;5114044;28;20039;-82
2023/08/28 09:38:43;;;;;;;0.20;0.20;;;19.10;99.90;;;;;;5114031;28;20417;-85
2023/08/28 09:41:10;;;;;;;0.20;0.20;;;19.30;99.90;;;;;;5113720;28;20118;-82
2023/08/28 09:43:36;;;;;;;0.22;0.22;;;19.40;99.90;;;;;;5112690;28;20043;-82
2023/08/28 09:46:04;;;;;;;0.30;0.30;;;19.60;99.90;;;;;;5113119;28;20040;-81
2023/08/28 09:48:32;;;;;;;0.30;0.30;;;19.60;99.90;;;;;;5113808;28;20039;-84
2023/08/28 09:51:01;;;;;;;0.30;0.30;;;19.70;99.90;;;;;;5113136;28;20046;-83
2023/08/28 09:53:28;;;;;;;0.30;0.30;;;19.70;99.90;;;;;;5113793;28;20050;-80
2023/08/28 09:55:54;;;;;;;0.30;0.30;;;19.70;99.90;;;;;;5113683;28;20515;-83
2023/08/28 09:58:23;;;;;;;0.30;0.30;;;19.80;99.90;;;;;;5113868;28;20082;-84
2023/08/28 10:00:50;;;;;;;0.20;0.20;;;20.00;99.90;;;;;;5114134;28;20130;-85
2023/08/28 10:03:17;;;;;;;0.28;0.28;;;20.10;99.90;;;;;;5117235;28;20076;-83
2023/08/28 10:05:45;;;;;;;0.30;0.30;;;20.20;99.90;;;;;;5117616;28;20421;-83
2023/08/28 10:08:12;;;;;;;0.30;0.30;;;20.30;99.90;;;;;;5117756;28;20047;-82
2023/08/28 10:10:40;;;;;;;0.30;0.30;;;20.20;99.90;;;;;;5117543;28;20044;-83
2023/08/28 10:13:10;;;;;;;0.30;0.30;;;19.90;99.90;;;;;;5116988;28;20444;-83
2023/08/28 10:15:46;;;;;;;0.30;0.30;;;19.80;99.90;;;;;;5117553;28;20040;-82
2023/08/28 10:18:29;;;;;;;0.30;0.30;;;19.60;99.90;;;;;;5117624;28;20118;-83
2023/08/28 10:20:56;;;;;;;0.30;0.30;;;19.40;99.90;;;;;;5116330;28;20085;-81
2023/08/28 10:23:22;;;;;;;0.30;0.30;;;19.40;99.90;;;;;;5117557;28;20044;-81
2023/08/28 10:25:51;;;;;;;0.30;0.30;;;19.40;99.90;;;;;;5117344;28;20083;-81
2023/08/28 10:28:19;;;;;;;0.20;0.20;;;19.50;99.90;;;;;;5117079;27;20043;-80
2023/08/28 10:30:46;;;;;;;0.20;0.20;;;19.70;99.90;;;;;;5117556;28;20387;-82
2023/08/28 10:33:13;;;;;;;0.30;0.30;;;19.90;99.90;;;;;;5117248;28;20044;-84
2023/08/28 10:35:43;;;;;;;0.20;0.20;;;20.10;99.90;;;;;;5117139;28;20043;-83
2023/08/28 10:38:11;;;;;;;0.20;0.20;;;20.10;99.90;;;;;;5117663;28;20116;-82
2023/08/28 10:40:37;;;;;;;0.20;0.20;;;20.10;99.90;;;;;;5117063;27;20039;-82
2023/08/28 10:43:04;;;;;;;0.20;0.20;;;20.00;99.90;;;;;;5116131;28;20043;-84
2023/08/28 10:45:30;;;;;;;0.20;0.20;;;20.10;99.90;;;;;;5116886;28;20314;-81
2023/08/28 10:47:56;;;;;;;0.20;0.20;;;20.10;99.90;;;;;;5116088;28;20464;-84
2023/08/28 10:50:22;;;;;;;0.30;0.30;;;20.10;99.90;;;;;;5117027;28;20042;-83
2023/08/28 10:52:47;;;;;;;0.27;0.27;;;20.30;99.90;;;;;;5116870;28;20046;-82
2023/08/28 10:55:18;;;;;;;0.30;0.30;;;20.20;99.90;;;;;;5115754;28;20044;-81
2023/08/28 10:57:49;;;;;;;0.30;0.30;;;20.30;99.90;;;;;;5116766;28;20043;-82
2023/08/28 11:00:17;;;;;;;0.20;0.20;;;20.40;99.90;;;;;;5117011;27;20043;-80
2023/08/28 11:03:02;;;;;;;0.20;0.20;;;20.40;99.90;;;;;;5115255;28;20467;-83
2023/08/28 11:05:27;;;;;;;0.20;0.20;;;20.60;99.90;;;;;;5117040;28;20047;-82
2023/08/28 11:07:56;;;;;;;0.30;0.30;;;20.70;99.90;;;;;;5116229;28;20056;-81
2023/08/28 11:10:25;;;;;;;0.20;0.20;;;20.70;99.90;;;;;;5116224;28;20032;-81
2023/08/28 11:12:53;;;;;;;0.30;0.30;;;20.70;99.90;;;;;;5116173;28;20119;-82
2023/08/28 11:15:33;;;;;;;0.20;0.20;;;20.60;99.90;;;;;;5114774;28;20043;-81
2023/08/28 11:18:28;;;;;;;0.20;0.20;;;20.50;99.90;;;;;;5116015;28;20099;-82
2023/08/28 11:20:58;;;;;;;0.30;0.30;;;20.60;99.90;;;;;;5116470;28;20065;-83
2023/08/28 11:23:36;;;;;;;0.20;0.20;;;20.70;99.90;;;;;;5116190;28;20053;-81
2023/08/28 11:26:06;;;;;;;0.47;0.47;;;20.80;99.90;;;;;;5116271;28;20085;-82
2023/08/28 11:28:45;;;;;;;0.40;0.40;;;20.90;99.90;;;;;;5116440;27;20080;-83
2023/08/28 11:31:12;;;;;;;0.22;0.22;;;21.20;99.90;;;;;;5116263;28;20370;-82
2023/08/28 11:33:46;;;;;;;0.20;0.20;;;21.30;99.90;;;;;;5115010;28;20093;-83
2023/08/28 11:36:18;;;;;;;0.20;0.20;;;21.60;99.90;;;;;;5115895;27;20032;-81
2023/08/28 11:38:45;;;;;;;0.20;0.20;;;21.70;99.90;;;;;;5116005;28;20118;-82
2023/08/28 11:41:10;;;;;;;;;;;21.80;99.90;;;;;;5116642;28;20050;-82
2023/08/28 11:43:43;;;;;;;0.20;0.20;;;21.90;99.90;;;;;;5115812;28;19919;-82
2023/08/28 11:46:11;;;;;;;0.20;0.20;;;21.90;99.90;;;;;;5115974;28;20479;-82
2023/08/28 11:48:38;;;;;;;0.20;0.20;;;21.80;99.90;;;;;;5115707;28;20096;-82
2023/08/28 11:51:07;;;;;;;0.25;0.25;;;21.80;99.90;;;;;;5115318;28;20462;-83
2023/08/28 11:53:37;;;;;;;0.20;0.20;;;21.90;99.90;;;;;;5116055;27;20047;-81
2023/08/28 11:56:05;;;;;;;0.30;0.30;;;22.00;99.90;;;;;;5115569;28;20079;-82
2023/08/28 11:58:32;;;;;;;0.20;0.20;;;22.10;99.90;;;;;;5115794;28;20049;-82
2023/08/28 12:01:05;;;;;;;0.20;0.20;;;22.10;99.90;;;;;;5114541;28;20043;-81
2023/08/28 12:03:31;;;;;;;0.28;0.28;;;22.10;99.90;;;;;;5115678;28;20089;-83
2023/08/28 12:06:02;;;;;;;0.20;0.20;;;22.00;99.90;;;;;;5115431;28;20479;-81
2023/08/28 12:08:29;;;;;;;0.20;0.20;;;21.90;99.90;;;;;;5115808;28;20437;-81
2023/08/28 12:10:54;;;;;;;0.30;0.30;;;21.90;99.90;;;;;;5115512;28;20082;-81
2023/08/28 12:13:20;;;;;;;0.20;0.20;;;22.00;99.90;;;;;;5115317;28;20440;-81
2023/08/28 12:15:46;;;;;;;0.20;0.20;;;22.20;99.90;;;;;;5115212;28;20039;-82
2023/08/28 12:18:11;;;;;;;0.30;0.30;;;22.20;99.90;;;;;;5113675;28;20122;-83
2023/08/28 12:20:37;;;;;;;0.20;0.20;;;22.10;99.90;;;;;;5115422;28;20122;-81
2023/08/28 12:23:03;;;;;;;0.30;0.30;;;21.90;99.90;;;;;;5115233;28;20042;-81
2023/08/28 12:25:34;;;;;;;0.20;0.20;;;21.80;99.90;;;;;;5113938;28;20107;-81
2023/08/28 12:28:10;;;;;;;0.20;0.20;;;21.70;99.90;;;;;;5115016;28;20047;-81
2023/08/28 12:30:39;;;;;;;0.20;0.20;;;21.70;99.90;;;;;;5114688;28;20043;-82
2023/08/28 12:33:06;;;;;;;0.20;0.20;;;21.70;99.90;;;;;;5113428;28;20375;-82
2023/08/28 12:35:39;;;;;;;0.20;0.20;;;21.60;99.90;;;;;;5114845;28;20042;-81
2023/08/28 12:38:05;;;;;;;0.20;0.20;;;21.70;99.90;;;;;;5114185;28;20036;-81
2023/08/28 12:40:37;;;;;;;0.20;0.20;;;21.70;99.90;;;;;;5115038;28;20593;-84
2023/08/28 12:43:13;;;;;;;0.20;0.20;;;21.70;99.90;;;;;;5114013;28;20075;-82
2023/08/28 12:45:39;;;;;;;0.20;0.20;;;21.70;99.90;;;;;;5115600;28;20070;-83
2023/08/28 12:48:05;;;;;;;0.20;0.20;;;21.80;99.90;;;;;;5096907;28;20044;-81
2023/08/28 12:50:31;;;;;;;0.20;0.20;;;21.90;99.90;;;;;;5113298;28;20035;-84